ULLI/LED METAR and TAF weather

Enter ICAO airport designator
Station Type Date Time Source
ULLI METAR 2019/09/20 20:00 UTC NOAA

ULLI 202000Z 24003MPS 9999 FEW026 05/02 Q1014 R28R/290050 NOSIG


Station Type Date Time Source
ULLI Decoded METAR 2019/09/20 20:00 UTC NOAA

St. Peterburg, Russia (ULLI) 59-58N 030-18E 6M
Sep 20, 2019 - 04:00 PM EDT / 2019.09.20 2000 UTC
Wind: from the WSW (240 degrees) at 7 MPH (6 KT):0
Visibility: greater than 7 mile(s):0
Sky conditions: mostly clear
Temperature: 41 F (5 C)
Dew Point: 35 F (2 C)
Relative Humidity: 80%
Pressure (altimeter): 29.94 in. Hg (1014 hPa)
ob: ULLI 202000Z 24003MPS 9999 FEW026 05/02 Q1014 R28R/290050 NOSIG
cycle: 20

Station Type Date Time Source
ULLI TAF 2019/09/20 21:21 UTC NOAA

TAF TAF ULLI 201957Z 2021/2121 22003MPS 6000 BKN020
TEMPO 2021/2105 18003MPS 3100 BR SCT011
BECMG 2105/2106 5000 -RA BR BKN011 BKN020
TEMPO 2106/2121 3100 -SHRA BKN011 BKN017CB
BECMG 2116/2118 34004G09MPS

Example: see airport list